Time;durP1;ratioP1;P1;durP2;ratioP2;P2;SDS_P1;SDS_P2;PMS_P1;PMS_P2;Temp;Humidity;BMP_temperature;BMP_pressure;BME280_temperature;BME280_humidity;BME280_pressure;Samples;Min_cycle;Max_cycle;Signal;HPM_P1;HPM_P2
2023/03/31 00:01:23;;;;;;;10.50;2.70;;;;;;;;;;4963228;28;20212;-65
2023/03/31 00:03:48;;;;;;;13.32;2.78;;;;;;;;;;4963854;28;20788;-65
2023/03/31 00:06:18;;;;;;;9.82;2.80;;;;;;;;;;4962488;28;20225;-65
2023/03/31 00:08:43;;;;;;;11.23;3.00;;;;;;;;;;4964018;28;20236;-65
2023/03/31 00:11:08;;;;;;;10.50;3.10;;;;;;;;;;4947833;28;20310;-65
2023/03/31 00:13:34;;;;;;;14.90;3.58;;;;;;;;;;4935266;28;20469;-65
2023/03/31 00:16:00;;;;;;;10.95;2.53;;;;;;;;;;4936914;28;20214;-65
2023/03/31 00:18:25;;;;;;;9.82;3.15;;;;;;;;;;4940672;28;20214;-65
2023/03/31 00:20:51;;;;;;;13.27;3.13;;;;;;;;;;4944600;28;20258;-65
2023/03/31 00:23:17;;;;;;;11.18;3.33;;;;;;;;;;4944283;28;20313;-65
2023/03/31 00:25:43;;;;;;;11.18;2.88;;;;;;;;;;4943896;28;20318;-64
2023/03/31 00:28:08;;;;;;;11.77;3.00;;;;;;;;;;4945735;28;20634;-64
2023/03/31 00:30:33;;;;;;;13.52;3.08;;;;;;;;;;4944936;28;20228;-65
2023/03/31 00:32:59;;;;;;;13.95;3.30;;;;;;;;;;4941227;28;20246;-65
2023/03/31 00:35:24;;;;;;;11.77;3.00;;;;;;;;;;4936642;28;20230;-64
2023/03/31 00:37:50;;;;;;;10.95;2.95;;;;;;;;;;4936859;28;20548;-64
2023/03/31 00:40:15;;;;;;;11.20;2.88;;;;;;;;;;4937813;28;20248;-64
2023/03/31 00:42:40;;;;;;;14.32;3.30;;;;;;;;;;4944013;28;20710;-64
2023/03/31 00:45:13;;;;;;;10.98;2.83;;;;;;;;;;4962757;28;20213;-64
2023/03/31 00:47:39;;;;;;;12.85;2.67;;;;;;;;;;4962653;28;20229;-65
2023/03/31 00:50:05;;;;;;;11.35;2.95;;;;;;;;;;4963102;28;20229;-64
2023/03/31 00:52:34;;;;;;;9.27;2.72;;;;;;;;;;4945960;28;20206;-64
2023/03/31 00:55:02;;;;;;;9.60;2.75;;;;;;;;;;4945201;28;20220;-64
2023/03/31 00:57:31;;;;;;;11.73;2.47;;;;;;;;;;4937924;28;20712;-64
2023/03/31 00:59:58;;;;;;;11.30;2.33;;;;;;;;;;4955673;28;20705;-65
2023/03/31 01:02:24;;;;;;;11.00;2.42;;;;;;;;;;4937260;28;20291;-64
2023/03/31 01:04:53;;;;;;;8.95;2.47;;;;;;;;;;4963050;28;20221;-64
2023/03/31 01:07:29;;;;;;;10.38;2.50;;;;;;;;;;4962856;28;20304;-64
2023/03/31 01:09:56;;;;;;;8.88;2.47;;;;;;;;;;4953072;28;20692;-64
2023/03/31 01:12:21;;;;;;;9.73;2.50;;;;;;;;;;4972540;28;20214;-64
2023/03/31 01:14:47;;;;;;;8.70;2.22;;;;;;;;;;4954963;28;20735;-64
2023/03/31 01:17:17;;;;;;;7.40;2.40;;;;;;;;;;4955680;28;20229;-64
2023/03/31 01:19:44;;;;;;;14.57;2.63;;;;;;;;;;4973101;28;20267;-64
2023/03/31 01:22:17;;;;;;;11.82;2.50;;;;;;;;;;4965163;28;20206;-65
2023/03/31 01:24:52;;;;;;;11.35;2.67;;;;;;;;;;4937863;29;20222;-65
2023/03/31 01:27:23;;;;;;;9.25;2.92;;;;;;;;;;4950087;28;20209;-65
2023/03/31 01:30:07;;;;;;;9.88;2.20;;;;;;;;;;4971707;28;20437;-65
2023/03/31 01:32:40;;;;;;;8.82;2.22;;;;;;;;;;4939672;29;20227;-65
2023/03/31 01:35:18;;;;;;;10.95;2.50;;;;;;;;;;4939577;29;20658;-65
2023/03/31 01:37:59;;;;;;;8.00;2.05;;;;;;;;;;4941023;28;20266;-65
2023/03/31 01:40:43;;;;;;;7.75;2.17;;;;;;;;;;4942139;29;20214;-65
2023/03/31 01:43:14;;;;;;;6.07;1.77;;;;;;;;;;4955212;29;20231;-65
2023/03/31 01:45:43;;;;;;;9.35;1.80;;;;;;;;;;4955440;28;20206;-65
2023/03/31 01:48:11;;;;;;;7.65;1.95;;;;;;;;;;4948937;28;20215;-65
2023/03/31 01:50:44;;;;;;;8.20;2.00;;;;;;;;;;4948460;28;20205;-65
2023/03/31 01:53:18;;;;;;;6.30;1.73;;;;;;;;;;4948456;28;20225;-65
2023/03/31 01:55:55;;;;;;;7.07;1.77;;;;;;;;;;4964560;28;20208;-65
2023/03/31 01:58:20;;;;;;;4.68;1.40;;;;;;;;;;4922418;28;20249;-65
2023/03/31 02:00:50;;;;;;;6.68;1.50;;;;;;;;;;4921356;28;20233;-65
2023/03/31 02:03:18;;;;;;;5.63;1.85;;;;;;;;;;4960080;28;20266;-65
2023/03/31 02:05:45;;;;;;;8.27;1.80;;;;;;;;;;4948760;28;20214;-65
2023/03/31 02:08:11;;;;;;;5.28;1.80;;;;;;;;;;4965904;28;20221;-65
2023/03/31 02:10:37;;;;;;;7.45;1.90;;;;;;;;;;4942286;28;20269;-65
2023/03/31 02:13:02;;;;;;;7.43;1.55;;;;;;;;;;4945872;28;20226;-65
2023/03/31 02:15:30;;;;;;;7.25;1.83;;;;;;;;;;4929458;28;20210;-65
2023/03/31 02:17:57;;;;;;;9.93;2.08;;;;;;;;;;4928236;28;20222;-65
2023/03/31 02:20:22;;;;;;;10.05;2.17;;;;;;;;;;4921931;28;20217;-65
2023/03/31 02:22:48;;;;;;;8.18;1.92;;;;;;;;;;4921569;28;20226;-65
2023/03/31 02:25:14;;;;;;;7.75;2.00;;;;;;;;;;4921133;28;20226;-65
2023/03/31 02:27:41;;;;;;;8.85;2.40;;;;;;;;;;4947136;28;20576;-65
2023/03/31 02:30:06;;;;;;;8.63;2.20;;;;;;;;;;4941041;28;20210;-65
2023/03/31 02:32:37;;;;;;;9.52;2.60;;;;;;;;;;4965108;28;20597;-65
2023/03/31 02:35:02;;;;;;;11.35;2.50;;;;;;;;;;4965095;28;20232;-65
2023/03/31 02:37:28;;;;;;;8.88;2.30;;;;;;;;;;4963791;28;20744;-65
2023/03/31 02:39:54;;;;;;;10.48;2.53;;;;;;;;;;4928988;28;20270;-66
2023/03/31 02:42:19;;;;;;;9.23;2.25;;;;;;;;;;4922300;28;20219;-65
2023/03/31 02:44:45;;;;;;;11.73;2.13;;;;;;;;;;4920803;28;20648;-65
2023/03/31 02:47:11;;;;;;;9.00;2.38;;;;;;;;;;4935154;28;20210;-65
2023/03/31 02:49:37;;;;;;;9.95;2.55;;;;;;;;;;4963712;28;20222;-65
2023/03/31 02:52:09;;;;;;;9.32;2.40;;;;;;;;;;4947615;28;20205;-64
2023/03/31 02:54:47;;;;;;;7.95;2.30;;;;;;;;;;4964645;28;20269;-65
2023/03/31 02:57:14;;;;;;;14.80;2.80;;;;;;;;;;4964854;28;20220;-65
2023/03/31 02:59:42;;;;;;;11.10;2.20;;;;;;;;;;4964861;28;20228;-65
2023/03/31 03:02:10;;;;;;;12.27;2.58;;;;;;;;;;4963815;28;20776;-64
2023/03/31 03:04:35;;;;;;;11.13;2.50;;;;;;;;;;4942183;28;20261;-65
2023/03/31 03:07:02;;;;;;;10.82;2.75;;;;;;;;;;4956640;28;20363;-64
2023/03/31 03:09:35;;;;;;;8.05;2.40;;;;;;;;;;4945681;28;20218;-65
2023/03/31 03:12:07;;;;;;;9.35;2.20;;;;;;;;;;4927749;28;20673;-64
2023/03/31 03:14:35;;;;;;;7.95;2.15;;;;;;;;;;4964015;28;20217;-65
2023/03/31 03:17:04;;;;;;;9.25;2.20;;;;;;;;;;4947082;28;20218;-64
2023/03/31 03:19:30;;;;;;;9.52;1.88;;;;;;;;;;4947341;28;20672;-65
2023/03/31 03:21:55;;;;;;;9.85;1.80;;;;;;;;;;4963969;28;20214;-65
2023/03/31 03:24:21;;;;;;;10.48;1.95;;;;;;;;;;4946578;28;20221;-65
2023/03/31 03:26:46;;;;;;;12.13;2.13;;;;;;;;;;4937452;28;20207;-66
2023/03/31 03:29:13;;;;;;;8.85;1.92;;;;;;;;;;4936835;28;20270;-65
2023/03/31 03:31:38;;;;;;;12.43;2.00;;;;;;;;;;4938265;28;20241;-65
2023/03/31 03:34:05;;;;;;;9.60;2.15;;;;;;;;;;4941258;28;20210;-65
2023/03/31 03:36:31;;;;;;;11.15;2.35;;;;;;;;;;4944655;28;20656;-66
2023/03/31 03:38:56;;;;;;;12.23;2.47;;;;;;;;;;4945889;28;20246;-65
2023/03/31 03:41:22;;;;;;;11.23;2.50;;;;;;;;;;4944948;28;20246;-65
2023/03/31 03:43:47;;;;;;;10.32;2.17;;;;;;;;;;4927160;28;20226;-65
2023/03/31 03:46:12;;;;;;;8.32;2.35;;;;;;;;;;4944986;28;20293;-65
2023/03/31 03:48:37;;;;;;;11.00;2.47;;;;;;;;;;4962323;28;20241;-66
2023/03/31 03:51:03;;;;;;;9.00;2.10;;;;;;;;;;4945486;28;20920;-65
2023/03/31 03:53:29;;;;;;;14.00;2.40;;;;;;;;;;4937568;28;20261;-66
2023/03/31 03:55:54;;;;;;;10.55;2.30;;;;;;;;;;4938024;28;20725;-65
2023/03/31 03:58:19;;;;;;;10.63;2.50;;;;;;;;;;4944117;28;20281;-65
2023/03/31 04:00:45;;;;;;;9.77;2.50;;;;;;;;;;4945282;28;20670;-66
2023/03/31 04:03:11;;;;;;;8.63;2.28;;;;;;;;;;4951290;28;20336;-66
2023/03/31 04:05:36;;;;;;;9.65;2.40;;;;;;;;;;4963456;28;20220;-66
2023/03/31 04:08:01;;;;;;;9.15;2.75;;;;;;;;;;4963354;28;20210;-65
2023/03/31 04:10:27;;;;;;;9.23;2.30;;;;;;;;;;4958119;28;20757;-66
2023/03/31 04:12:52;;;;;;;11.02;2.30;;;;;;;;;;4939676;28;20313;-66
2023/03/31 04:15:17;;;;;;;10.48;2.50;;;;;;;;;;4954729;28;20635;-66
2023/03/31 04:17:49;;;;;;;10.45;2.42;;;;;;;;;;4955524;28;20222;-66
2023/03/31 04:20:14;;;;;;;11.65;2.47;;;;;;;;;;4961718;28;20224;-65
2023/03/31 04:22:40;;;;;;;12.40;2.33;;;;;;;;;;4963748;28;20582;-66
2023/03/31 04:25:09;;;;;;;13.77;2.78;;;;;;;;;;4962860;28;20248;-66
2023/03/31 04:27:34;;;;;;;11.43;2.80;;;;;;;;;;4953419;28;20679;-66
2023/03/31 04:30:00;;;;;;;12.30;3.40;;;;;;;;;;4958381;28;20737;-66
2023/03/31 04:32:25;;;;;;;14.55;4.18;;;;;;;;;;4943360;28;21246;-65
2023/03/31 04:34:50;;;;;;;18.35;4.20;;;;;;;;;;4940482;28;20206;-66
2023/03/31 04:37:16;;;;;;;15.48;4.13;;;;;;;;;;4936823;28;20471;-65
2023/03/31 04:39:41;;;;;;;14.48;3.40;;;;;;;;;;4936099;28;20206;-66
2023/03/31 04:42:06;;;;;;;14.30;3.50;;;;;;;;;;4958464;28;20268;-66
2023/03/31 04:44:32;;;;;;;12.88;3.13;;;;;;;;;;4963614;28;20217;-66
2023/03/31 04:46:57;;;;;;;16.35;3.75;;;;;;;;;;4962434;28;20227;-66
2023/03/31 04:49:23;;;;;;;11.70;3.17;;;;;;;;;;4963448;28;20213;-66
2023/03/31 04:51:48;;;;;;;13.02;3.00;;;;;;;;;;4963429;28;20320;-66
2023/03/31 04:54:13;;;;;;;13.70;3.08;;;;;;;;;;4962633;28;20222;-66
2023/03/31 04:56:39;;;;;;;13.18;3.00;;;;;;;;;;4962037;28;20222;-66
2023/03/31 04:59:04;;;;;;;13.02;2.90;;;;;;;;;;4938147;28;20210;-65
2023/03/31 05:01:31;;;;;;;13.60;3.30;;;;;;;;;;4958172;28;20217;-66
2023/03/31 05:03:57;;;;;;;13.80;3.33;;;;;;;;;;4960373;28;20237;-66
2023/03/31 05:06:22;;;;;;;11.52;2.90;;;;;;;;;;4966747;28;20338;-66
2023/03/31 05:08:47;;;;;;;14.27;2.95;;;;;;;;;;4966395;28;20654;-66
2023/03/31 05:11:13;;;;;;;13.02;3.25;;;;;;;;;;4955522;28;20210;-66
2023/03/31 05:13:38;;;;;;;11.35;2.80;;;;;;;;;;4947686;28;20731;-66
2023/03/31 05:16:07;;;;;;;15.05;3.08;;;;;;;;;;4947200;28;20238;-66
2023/03/31 05:18:33;;;;;;;11.27;2.90;;;;;;;;;;4966670;28;20213;-66
2023/03/31 05:21:07;;;;;;;11.18;2.63;;;;;;;;;;4959946;28;20249;-66
2023/03/31 05:23:32;;;;;;;15.25;3.08;;;;;;;;;;4958282;28;20248;-66
2023/03/31 05:25:57;;;;;;;9.55;2.50;;;;;;;;;;4958947;28;20304;-66
2023/03/31 05:28:22;;;;;;;13.35;3.67;;;;;;;;;;4946371;28;20210;-66
2023/03/31 05:30:48;;;;;;;17.52;8.32;;;;;;;;;;4947660;28;20211;-66
2023/03/31 05:33:13;;;;;;;11.40;3.40;;;;;;;;;;4947219;28;20273;-66
2023/03/31 05:35:39;;;;;;;14.75;3.97;;;;;;;;;;4965224;28;20210;-66
2023/03/31 05:38:04;;;;;;;13.20;4.47;;;;;;;;;;4960307;28;20577;-66
2023/03/31 05:40:29;;;;;;;19.83;8.48;;;;;;;;;;4947721;28;20215;-66
2023/03/31 05:42:55;;;;;;;11.38;2.85;;;;;;;;;;4943036;28;20336;-66
2023/03/31 05:45:20;;;;;;;9.93;2.75;;;;;;;;;;4939259;28;20713;-66
2023/03/31 05:47:45;;;;;;;13.65;3.20;;;;;;;;;;4939883;28;20586;-66
2023/03/31 05:50:11;;;;;;;11.57;3.30;;;;;;;;;;4942450;28;20215;-66
2023/03/31 05:52:36;;;;;;;12.88;3.40;;;;;;;;;;4966188;28;20222;-66
2023/03/31 05:55:02;;;;;;;13.75;3.13;;;;;;;;;;4968485;28;20288;-65
2023/03/31 05:57:27;;;;;;;10.57;2.88;;;;;;;;;;4965937;28;20372;-66
2023/03/31 05:59:52;;;;;;;14.95;2.83;;;;;;;;;;4974453;28;20216;-71
2023/03/31 06:02:17;;;;;;;14.60;3.50;;;;;;;;;;4975192;28;20418;-65
2023/03/31 06:04:43;;;;;;;17.77;3.40;;;;;;;;;;4974322;28;20965;-64
2023/03/31 06:07:08;;;;;;;10.15;2.80;;;;;;;;;;4975436;28;20221;-64
2023/03/31 06:09:34;;;;;;;14.63;3.05;;;;;;;;;;4975185;28;20426;-64
2023/03/31 06:11:59;;;;;;;13.50;2.75;;;;;;;;;;4964499;28;20310;-65
2023/03/31 06:14:25;;;;;;;15.15;2.72;;;;;;;;;;4963544;28;20338;-65
2023/03/31 06:16:50;;;;;;;12.20;3.08;;;;;;;;;;4944491;28;20214;-65
2023/03/31 06:19:16;;;;;;;10.90;2.63;;;;;;;;;;4961139;28;20678;-65
2023/03/31 06:21:41;;;;;;;12.35;2.72;;;;;;;;;;4966423;28;20568;-64
2023/03/31 06:24:07;;;;;;;12.60;5.90;;;;;;;;;;4962834;28;20709;-64
2023/03/31 06:26:33;;;;;;;37.33;21.08;;;;;;;;;;4952881;28;20217;-64
2023/03/31 06:28:59;;;;;;;9.40;2.60;;;;;;;;;;4965542;28;20506;-64
2023/03/31 06:31:24;;;;;;;11.98;2.83;;;;;;;;;;4962914;28;20226;-64
2023/03/31 06:33:49;;;;;;;15.95;2.63;;;;;;;;;;4965869;28;20210;-65
2023/03/31 06:36:16;;;;;;;9.88;2.55;;;;;;;;;;4964417;28;20203;-63
2023/03/31 06:38:41;;;;;;;12.50;3.05;;;;;;;;;;4944425;29;20277;-65
2023/03/31 06:41:07;;;;;;;12.75;2.92;;;;;;;;;;4960417;28;20674;-63
2023/03/31 06:43:32;;;;;;;8.20;2.30;;;;;;;;;;4963904;28;20223;-63
2023/03/31 06:45:57;;;;;;;9.93;1.92;;;;;;;;;;4964614;28;20209;-63
2023/03/31 06:48:24;;;;;;;8.13;2.25;;;;;;;;;;4964632;28;20583;-63
2023/03/31 06:50:49;;;;;;;9.52;1.92;;;;;;;;;;4963721;28;20322;-63
2023/03/31 06:53:14;;;;;;;7.00;1.73;;;;;;;;;;4964932;28;20305;-63
2023/03/31 06:55:40;;;;;;;6.82;1.85;;;;;;;;;;4964667;28;20554;-63
2023/03/31 06:58:05;;;;;;;8.27;1.80;;;;;;;;;;4942658;28;20221;-63
2023/03/31 07:00:31;;;;;;;7.47;1.73;;;;;;;;;;4968871;28;20453;-65
2023/03/31 07:02:56;;;;;;;6.43;1.58;;;;;;;;;;4974683;28;20261;-66
2023/03/31 07:05:27;;;;;;;10.75;1.70;;;;;;;;;;4956032;28;20261;-64
2023/03/31 07:07:54;;;;;;;7.47;1.70;;;;;;;;;;4958879;28;20221;-66
2023/03/31 07:10:20;;;;;;;5.72;2.00;;;;;;;;;;4955568;28;20215;-65
2023/03/31 07:12:45;;;;;;;6.80;1.80;;;;;;;;;;4955440;29;20273;-65
2023/03/31 07:15:10;;;;;;;9.15;3.22;;;;;;;;;;4952566;28;20210;-65
2023/03/31 07:17:36;;;;;;;9.18;2.00;;;;;;;;;;4938109;29;20266;-65
2023/03/31 07:20:02;;;;;;;10.77;1.63;;;;;;;;;;4954915;29;20214;-65
2023/03/31 07:22:28;;;;;;;8.05;1.45;;;;;;;;;;4954350;28;20269;-66
2023/03/31 07:24:53;;;;;;;7.90;1.75;;;;;;;;;;4955137;29;20222;-66
2023/03/31 07:27:18;;;;;;;8.43;1.80;;;;;;;;;;4964799;28;20585;-68
2023/03/31 07:29:44;;;;;;;7.35;2.00;;;;;;;;;;4970480;28;20211;-66
2023/03/31 07:32:09;;;;;;;7.90;1.52;;;;;;;;;;4961925;28;20218;-69
2023/03/31 07:34:35;;;;;;;4.90;1.30;;;;;;;;;;4959285;28;20218;-68
2023/03/31 07:37:00;;;;;;;5.20;1.48;;;;;;;;;;4964279;28;20232;-67
2023/03/31 07:39:25;;;;;;;8.13;1.65;;;;;;;;;;4963335;28;20209;-68
2023/03/31 07:41:51;;;;;;;5.15;1.55;;;;;;;;;;4963186;28;20689;-68
2023/03/31 07:44:17;;;;;;;7.57;1.73;;;;;;;;;;4962550;28;20226;-68
2023/03/31 07:46:43;;;;;;;7.55;1.70;;;;;;;;;;4955529;28;20292;-67
2023/03/31 07:49:09;;;;;;;8.25;1.63;;;;;;;;;;4961809;28;20230;-68
2023/03/31 07:51:34;;;;;;;7.32;1.80;;;;;;;;;;4944049;29;20219;-68
2023/03/31 07:53:59;;;;;;;6.22;1.92;;;;;;;;;;4954685;29;20218;-68
2023/03/31 07:56:25;;;;;;;6.78;2.00;;;;;;;;;;4953485;29;20210;-68
2023/03/31 07:58:51;;;;;;;7.88;1.77;;;;;;;;;;4959222;28;20233;-70
2023/03/31 08:01:17;;;;;;;7.00;1.83;;;;;;;;;;4970588;28;20225;-71
2023/03/31 08:03:43;;;;;;;5.80;1.85;;;;;;;;;;4967266;28;20220;-70
2023/03/31 08:06:08;;;;;;;8.20;1.98;;;;;;;;;;4962681;28;20210;-70
2023/03/31 08:08:33;;;;;;;9.80;2.13;;;;;;;;;;4962005;28;20666;-69
2023/03/31 08:10:59;;;;;;;6.55;2.08;;;;;;;;;;4962012;28;20214;-70
2023/03/31 08:13:24;;;;;;;9.30;2.60;;;;;;;;;;4963052;28;20249;-70
2023/03/31 08:15:50;;;;;;;6.10;1.85;;;;;;;;;;4964133;28;20230;-70
2023/03/31 08:18:15;;;;;;;8.70;2.35;;;;;;;;;;4960640;28;20206;-70
2023/03/31 08:20:40;;;;;;;8.20;2.20;;;;;;;;;;4964139;28;20684;-69
2023/03/31 08:23:08;;;;;;;8.88;2.50;;;;;;;;;;4945508;28;20585;-69
2023/03/31 08:25:33;;;;;;;8.48;2.50;;;;;;;;;;4961817;28;20240;-70
2023/03/31 08:27:58;;;;;;;7.50;1.92;;;;;;;;;;4962124;28;20226;-69
2023/03/31 08:30:24;;;;;;;8.85;2.03;;;;;;;;;;4962539;28;20213;-69
2023/03/31 08:32:49;;;;;;;8.27;1.88;;;;;;;;;;4961485;28;20732;-69
2023/03/31 08:35:14;;;;;;;6.78;1.40;;;;;;;;;;4955937;28;20218;-68
2023/03/31 08:37:40;;;;;;;6.57;1.50;;;;;;;;;;4965756;28;20214;-67
2023/03/31 08:40:08;;;;;;;5.20;1.20;;;;;;;;;;4966717;28;20202;-66
2023/03/31 08:42:33;;;;;;;6.43;1.42;;;;;;;;;;4966218;28;20293;-67
2023/03/31 08:45:00;;;;;;;5.50;1.58;;;;;;;;;;4966905;28;20365;-66
2023/03/31 08:47:26;;;;;;;6.63;1.58;;;;;;;;;;4967090;28;20211;-66
2023/03/31 08:49:53;;;;;;;7.40;1.40;;;;;;;;;;4966227;28;20202;-67
2023/03/31 08:52:21;;;;;;;6.57;1.60;;;;;;;;;;4964900;28;20238;-66
2023/03/31 08:54:48;;;;;;;7.00;1.90;;;;;;;;;;4949644;28;20577;-68
2023/03/31 08:57:16;;;;;;;10.13;2.30;;;;;;;;;;4950327;28;20198;-68
2023/03/31 08:59:43;;;;;;;9.30;2.40;;;;;;;;;;4948291;28;20586;-66
2023/03/31 09:02:11;;;;;;;13.02;2.83;;;;;;;;;;4966005;28;20704;-66
2023/03/31 09:04:42;;;;;;;11.13;2.63;;;;;;;;;;4950707;28;20718;-66
2023/03/31 09:07:13;;;;;;;14.00;2.58;;;;;;;;;;4963723;28;20207;-65
2023/03/31 09:09:42;;;;;;;12.50;2.85;;;;;;;;;;4965857;28;20689;-66
2023/03/31 09:12:12;;;;;;;12.73;2.95;;;;;;;;;;4967609;28;20216;-66
2023/03/31 09:14:41;;;;;;;11.95;2.72;;;;;;;;;;4964791;28;20301;-67
2023/03/31 09:17:11;;;;;;;13.95;3.00;;;;;;;;;;4949013;28;20210;-67
2023/03/31 09:19:36;;;;;;;12.70;2.90;;;;;;;;;;4950475;28;20210;-66
2023/03/31 09:22:02;;;;;;;12.75;3.17;;;;;;;;;;4964382;28;20293;-65
2023/03/31 09:24:28;;;;;;;14.95;3.25;;;;;;;;;;4949096;28;20253;-66
2023/03/31 09:26:54;;;;;;;14.50;3.00;;;;;;;;;;4943504;28;20202;-67
2023/03/31 09:29:23;;;;;;;13.63;3.17;;;;;;;;;;4959122;28;20225;-67
2023/03/31 09:31:48;;;;;;;16.30;3.50;;;;;;;;;;4938231;29;20233;-67
2023/03/31 09:34:15;;;;;;;14.18;4.25;;;;;;;;;;4956108;29;20568;-67
2023/03/31 09:36:41;;;;;;;12.63;3.08;;;;;;;;;;4956579;29;20295;-68
2023/03/31 09:39:09;;;;;;;13.95;3.25;;;;;;;;;;4939269;28;20317;-67
2023/03/31 09:41:35;;;;;;;14.50;3.50;;;;;;;;;;4938820;29;20285;-68
2023/03/31 09:44:00;;;;;;;13.52;3.22;;;;;;;;;;4939279;28;20313;-65
2023/03/31 09:46:29;;;;;;;16.83;3.25;;;;;;;;;;4956677;28;20265;-68
2023/03/31 09:49:04;;;;;;;13.63;3.60;;;;;;;;;;4956159;28;20210;-68
2023/03/31 09:51:31;;;;;;;15.23;3.60;;;;;;;;;;4939616;29;20569;-68
2023/03/31 09:54:00;;;;;;;14.10;3.28;;;;;;;;;;4956526;28;20206;-68
2023/03/31 09:56:30;;;;;;;17.90;4.20;;;;;;;;;;4955222;28;20219;-67
2023/03/31 09:58:56;;;;;;;14.15;3.33;;;;;;;;;;4939525;29;20217;-68
2023/03/31 10:01:21;;;;;;;18.85;3.70;;;;;;;;;;4938978;28;20211;-67
2023/03/31 10:03:48;;;;;;;14.50;2.90;;;;;;;;;;4937757;29;20297;-68
2023/03/31 10:06:13;;;;;;;14.30;3.08;;;;;;;;;;4938873;29;20615;-68
2023/03/31 10:08:38;;;;;;;15.05;3.20;;;;;;;;;;4956338;29;20210;-67
2023/03/31 10:11:05;;;;;;;10.85;2.88;;;;;;;;;;4954928;29;20221;-67
2023/03/31 10:13:38;;;;;;;14.80;3.03;;;;;;;;;;4956546;29;20210;-67
2023/03/31 10:16:05;;;;;;;14.32;3.28;;;;;;;;;;4955971;29;20206;-67
2023/03/31 10:18:31;;;;;;;15.07;3.00;;;;;;;;;;4955957;29;20206;-68
2023/03/31 10:20:57;;;;;;;14.23;3.17;;;;;;;;;;4939080;29;20678;-67
2023/03/31 10:23:23;;;;;;;13.65;2.95;;;;;;;;;;4954966;29;20273;-67
2023/03/31 10:25:48;;;;;;;18.70;3.28;;;;;;;;;;4938725;29;20214;-67
2023/03/31 10:28:16;;;;;;;14.95;2.83;;;;;;;;;;4973656;28;20575;-67
2023/03/31 10:30:41;;;;;;;11.43;2.95;;;;;;;;;;4946317;29;20217;-67
2023/03/31 10:33:10;;;;;;;17.85;3.10;;;;;;;;;;4938201;29;20222;-67
2023/03/31 10:35:36;;;;;;;13.85;3.22;;;;;;;;;;4939186;29;20217;-67
2023/03/31 10:38:02;;;;;;;13.98;3.20;;;;;;;;;;4937543;29;20214;-66
2023/03/31 10:40:28;;;;;;;13.77;3.03;;;;;;;;;;4955935;28;20206;-67
2023/03/31 10:43:10;;;;;;;16.58;2.92;;;;;;;;;;4974752;28;20261;-69
2023/03/31 10:45:36;;;;;;;15.55;3.15;;;;;;;;;;4974095;28;20225;-68
2023/03/31 10:48:01;;;;;;;16.15;3.22;;;;;;;;;;4974665;28;20696;-68
2023/03/31 10:50:28;;;;;;;13.75;3.00;;;;;;;;;;4975350;28;20210;-68
2023/03/31 10:52:55;;;;;;;12.90;2.83;;;;;;;;;;4974276;28;20209;-69
2023/03/31 10:55:22;;;;;;;13.95;2.83;;;;;;;;;;4957081;28;22570;-68
2023/03/31 10:57:54;;;;;;;16.08;2.88;;;;;;;;;;4973985;28;20206;-69
2023/03/31 11:00:28;;;;;;;17.58;3.22;;;;;;;;;;4956434;28;20911;-69
2023/03/31 11:02:58;;;;;;;13.02;2.50;;;;;;;;;;4957482;28;20292;-68
2023/03/31 11:05:27;;;;;;;11.07;2.90;;;;;;;;;;4973740;28;20232;-68
2023/03/31 11:08:05;;;;;;;14.00;2.80;;;;;;;;;;4949105;29;20223;-68
2023/03/31 11:10:33;;;;;;;11.73;2.60;;;;;;;;;;4954659;28;20262;-68
2023/03/31 11:13:03;;;;;;;10.20;2.80;;;;;;;;;;4954627;28;20218;-68
2023/03/31 11:15:35;;;;;;;13.25;3.45;;;;;;;;;;4955077;28;20214;-68
2023/03/31 11:18:00;;;;;;;13.10;2.60;;;;;;;;;;4955254;28;20293;-68
2023/03/31 11:20:40;;;;;;;10.13;2.42;;;;;;;;;;4954094;29;20321;-68
2023/03/31 11:23:21;;;;;;;11.70;2.60;;;;;;;;;;4937536;29;20317;-67
2023/03/31 11:25:56;;;;;;;12.80;2.38;;;;;;;;;;4937654;29;20577;-68
2023/03/31 11:28:25;;;;;;;15.40;2.70;;;;;;;;;;4972994;28;20209;-68
2023/03/31 11:30:56;;;;;;;13.32;2.60;;;;;;;;;;4961967;28;20244;-68
2023/03/31 11:33:28;;;;;;;11.15;2.40;;;;;;;;;;4954498;29;20214;-68
2023/03/31 11:35:58;;;;;;;13.45;3.03;;;;;;;;;;4955026;29;20538;-68
2023/03/31 11:38:29;;;;;;;13.50;2.60;;;;;;;;;;4938051;28;20305;-68
2023/03/31 11:41:07;;;;;;;12.05;2.85;;;;;;;;;;4972913;28;20252;-68
2023/03/31 11:43:43;;;;;;;13.30;3.08;;;;;;;;;;4956561;28;20221;-68
2023/03/31 11:46:15;;;;;;;11.15;2.50;;;;;;;;;;4973599;28;20217;-65
2023/03/31 11:48:43;;;;;;;11.43;2.40;;;;;;;;;;4973238;28;20340;-67
2023/03/31 11:51:10;;;;;;;11.20;2.33;;;;;;;;;;4938589;29;20225;-67
2023/03/31 11:53:36;;;;;;;8.73;2.20;;;;;;;;;;4936696;29;20207;-68
2023/03/31 11:56:01;;;;;;;10.13;2.40;;;;;;;;;;4920235;29;20215;-67
2023/03/31 11:58:31;;;;;;;13.50;2.97;;;;;;;;;;4936464;29;20666;-67
2023/03/31 12:00:57;;;;;;;12.63;2.33;;;;;;;;;;4937513;29;20701;-68
2023/03/31 12:03:27;;;;;;;10.60;2.55;;;;;;;;;;4936321;29;20222;-67
2023/03/31 12:05:55;;;;;;;8.15;2.08;;;;;;;;;;4966158;28;20601;-68
2023/03/31 12:08:34;;;;;;;10.98;2.17;;;;;;;;;;4943583;28;20223;-68
2023/03/31 12:11:01;;;;;;;11.43;2.03;;;;;;;;;;4934868;29;20210;-67
2023/03/31 12:13:32;;;;;;;10.23;2.00;;;;;;;;;;4936593;29;20573;-67
2023/03/31 12:16:05;;;;;;;11.50;2.45;;;;;;;;;;4936401;29;20309;-68
2023/03/31 12:18:32;;;;;;;9.18;2.10;;;;;;;;;;4936939;29;20215;-67
2023/03/31 12:20:59;;;;;;;8.30;2.15;;;;;;;;;;4954247;29;20207;-67
2023/03/31 12:23:26;;;;;;;11.88;2.03;;;;;;;;;;4934665;29;20218;-67
2023/03/31 12:25:54;;;;;;;10.70;2.45;;;;;;;;;;4936621;29;20213;-67
2023/03/31 12:28:19;;;;;;;9.07;2.20;;;;;;;;;;4953346;28;20215;-68
2023/03/31 12:30:45;;;;;;;7.38;2.00;;;;;;;;;;4953275;28;20290;-67
2023/03/31 12:33:11;;;;;;;8.73;1.95;;;;;;;;;;4943075;28;20272;-67
2023/03/31 12:35:47;;;;;;;9.85;2.47;;;;;;;;;;4964823;28;20237;-67
2023/03/31 12:38:14;;;;;;;13.05;2.67;;;;;;;;;;4945446;28;20221;-68
2023/03/31 12:40:57;;;;;;;14.60;3.20;;;;;;;;;;4943552;28;20309;-67
2023/03/31 12:43:29;;;;;;;10.70;2.40;;;;;;;;;;4956077;28;20234;-67
2023/03/31 12:45:54;;;;;;;11.52;2.45;;;;;;;;;;4967081;28;20205;-67
2023/03/31 12:48:25;;;;;;;10.65;2.60;;;;;;;;;;4959596;28;20588;-67
2023/03/31 12:50:50;;;;;;;13.13;2.70;;;;;;;;;;4955130;28;20574;-66
2023/03/31 12:53:15;;;;;;;14.90;2.95;;;;;;;;;;4972724;28;20206;-66
2023/03/31 12:55:43;;;;;;;11.93;2.60;;;;;;;;;;4969092;28;20225;-67
2023/03/31 12:58:33;;;;;;;11.02;2.60;;;;;;;;;;4944639;28;20268;-67
2023/03/31 13:01:03;;;;;;;11.73;2.83;;;;;;;;;;4973115;28;20206;-67
2023/03/31 13:03:33;;;;;;;11.80;2.40;;;;;;;;;;4972950;28;20221;-67
2023/03/31 13:05:58;;;;;;;11.93;2.45;;;;;;;;;;4972351;28;20210;-67
2023/03/31 13:08:42;;;;;;;15.68;3.20;;;;;;;;;;4955981;28;20214;-68
2023/03/31 13:11:07;;;;;;;14.07;2.50;;;;;;;;;;4953082;29;20206;-69
2023/03/31 13:13:32;;;;;;;12.65;2.45;;;;;;;;;;4935758;29;20261;-68
2023/03/31 13:15:58;;;;;;;11.07;1.95;;;;;;;;;;4968783;28;20669;-68
2023/03/31 13:18:24;;;;;;;11.68;2.13;;;;;;;;;;4955460;28;20217;-68
2023/03/31 13:21:04;;;;;;;8.80;1.85;;;;;;;;;;4973465;28;20396;-68
2023/03/31 13:23:32;;;;;;;10.82;2.03;;;;;;;;;;4976245;28;20226;-68
2023/03/31 13:25:57;;;;;;;12.63;1.90;;;;;;;;;;4958989;28;20236;-68
2023/03/31 13:28:25;;;;;;;11.45;2.22;;;;;;;;;;4975387;28;20241;-68
2023/03/31 13:30:51;;;;;;;9.68;2.10;;;;;;;;;;4963986;28;20213;-68
2023/03/31 13:33:24;;;;;;;9.82;1.92;;;;;;;;;;4954876;29;20266;-68
2023/03/31 13:35:52;;;;;;;7.95;1.90;;;;;;;;;;4955998;29;20297;-68
2023/03/31 13:38:34;;;;;;;7.45;1.65;;;;;;;;;;4955351;29;20289;-67
2023/03/31 13:40:59;;;;;;;9.23;1.77;;;;;;;;;;4941457;29;20210;-67
2023/03/31 13:43:30;;;;;;;9.52;2.00;;;;;;;;;;4956403;29;20225;-67
2023/03/31 13:45:58;;;;;;;7.55;1.80;;;;;;;;;;4939479;29;20225;-68
2023/03/31 13:48:29;;;;;;;7.68;2.05;;;;;;;;;;4940072;28;20655;-68
2023/03/31 13:51:04;;;;;;;10.07;2.42;;;;;;;;;;4976011;28;20225;-69
2023/03/31 13:53:32;;;;;;;9.50;2.13;;;;;;;;;;4975868;28;20216;-69
2023/03/31 13:56:07;;;;;;;9.73;1.80;;;;;;;;;;4956416;28;20242;-70
2023/03/31 13:58:37;;;;;;;10.32;2.40;;;;;;;;;;4959818;28;20684;-70
2023/03/31 14:01:09;;;;;;;9.73;2.63;;;;;;;;;;4943468;28;20431;-69
2023/03/31 14:03:45;;;;;;;11.63;2.10;;;;;;;;;;4944304;28;20225;-69
2023/03/31 14:06:19;;;;;;;7.30;1.98;;;;;;;;;;4931516;28;20270;-69
2023/03/31 14:08:48;;;;;;;10.18;2.45;;;;;;;;;;4930422;28;20216;-69
2023/03/31 14:11:14;;;;;;;13.95;2.60;;;;;;;;;;4931023;28;20206;-70
2023/03/31 14:13:39;;;;;;;8.63;2.10;;;;;;;;;;4933554;28;20213;-69
2023/03/31 14:16:05;;;;;;;8.32;1.88;;;;;;;;;;4964949;28;20214;-68
2023/03/31 14:18:32;;;;;;;10.15;2.15;;;;;;;;;;4969051;28;20856;-68
2023/03/31 14:21:16;;;;;;;9.60;2.05;;;;;;;;;;4946915;28;20685;-68
2023/03/31 14:23:43;;;;;;;9.40;1.98;;;;;;;;;;4959992;28;20292;-67
2023/03/31 14:26:12;;;;;;;8.88;1.92;;;;;;;;;;4961660;28;20744;-67
2023/03/31 14:28:45;;;;;;;7.75;1.70;;;;;;;;;;4949369;28;20225;-67
2023/03/31 14:31:19;;;;;;;10.45;2.13;;;;;;;;;;4936594;28;20247;-69
2023/03/31 14:33:56;;;;;;;10.55;2.20;;;;;;;;;;4968070;28;20292;-67
2023/03/31 14:36:27;;;;;;;9.30;1.90;;;;;;;;;;4967825;28;20224;-67
2023/03/31 14:38:52;;;;;;;10.38;2.10;;;;;;;;;;4968959;28;20225;-68